Time;durP1;ratioP1;P1;durP2;ratioP2;P2;SDS_P1;SDS_P2;PMS_P1;PMS_P2;Temp;Humidity;BMP_temperature;BMP_pressure;BME280_temperature;BME280_humidity;BME280_pressure;Samples;Min_cycle;Max_cycle;Signal;HPM_P1;HPM_P2
2023/12/24 00:00:37;;;;;;;;;;;;;;;9.44;nan;100211.63;5026700;28;20333;-84
2023/12/24 00:03:02;;;;;;;;;;;;;;;9.45;nan;100213.25;5029208;28;19999;-85
2023/12/24 00:05:28;;;;;;;;;;;;;;;9.46;nan;100212.19;5028229;28;19924;-85
2023/12/24 00:07:53;;;;;;;;;;;;;;;9.50;nan;100202.59;5027976;28;19931;-85
2023/12/24 00:10:18;;;;;;;;;;;;;;;9.45;nan;100214.06;5027332;28;19974;-84
2023/12/24 00:12:43;;;;;;;;;;;;;;;9.47;nan;100217.28;5027574;28;19925;-84
2023/12/24 00:15:09;;;;;;;;;;;;;;;9.51;nan;100213.03;5028195;28;19925;-84
2023/12/24 00:17:34;;;;;;;;;;;;;;;9.53;nan;100215.47;5028548;28;21139;-84
2023/12/24 00:19:59;;;;;;;;;;;;;;;9.54;nan;100198.38;5030137;28;19925;-85
2023/12/24 00:22:27;;;;;;;;;;;;;;;9.59;nan;100203.75;5026697;28;19936;-85
2023/12/24 00:24:53;;;;;;;;;;;;;;;9.63;nan;100202.19;5026359;28;21521;-85
2023/12/24 00:27:18;;;;;;;;;;;;;;;9.60;nan;100203.50;5027375;28;19932;-85
2023/12/24 00:29:43;;;;;;;;;;;;;;;9.62;nan;100208.59;5026859;28;19933;-84
2023/12/24 00:32:08;;;;;;;;;;;;;;;9.64;nan;100203.78;5011049;28;20473;-84
2023/12/24 00:34:34;;;;;;;;;;;;;;;9.64;nan;100212.63;5027535;28;19932;-84
2023/12/24 00:36:59;;;;;;;;;;;;;;;9.63;nan;100208.34;5027936;28;19942;-85
2023/12/24 00:39:24;;;;;;;;;;;;;;;9.63;nan;100215.56;5026230;28;19925;-85
2023/12/24 00:41:49;;;;;;;;;;;;;;;9.62;nan;100217.44;5027873;28;19932;-85
2023/12/24 00:44:15;;;;;;;;;;;;;;;9.59;nan;100214.47;5026922;28;20348;-84
2023/12/24 00:46:40;;;;;;;;;;;;;;;9.58;nan;100205.63;5026891;28;19920;-84
2023/12/24 00:49:05;;;;;;;;;;;;;;;9.53;nan;100218.97;5027854;28;19963;-84
2023/12/24 00:51:30;;;;;;;;;;;;;;;9.52;nan;100219.22;5009904;28;19972;-84
2023/12/24 00:53:56;;;;;;;;;;;;;;;9.50;nan;100219.44;5026332;28;19925;-84
2023/12/24 00:56:21;;;;;;;;;;;;;;;9.50;nan;100210.63;5027092;28;19921;-85
2023/12/24 00:58:46;;;;;;;;;;;;;;;9.52;nan;100197.81;5026419;28;20445;-84
2023/12/24 01:01:11;;;;;;;;;;;;;;;9.54;nan;100201.84;5027615;28;19925;-85
2023/12/24 01:03:37;;;;;;;;;;;;;;;9.56;nan;100204.28;5027466;28;19929;-84
2023/12/24 01:06:02;;;;;;;;;;;;;;;9.57;nan;100200.53;5027721;28;19925;-84
2023/12/24 01:08:27;;;;;;;;;;;;;;;9.55;nan;100202.66;5025797;28;20573;-84
2023/12/24 01:10:53;;;;;;;;;;;;;;;9.51;nan;100194.31;5026515;28;19921;-84
2023/12/24 01:13:19;;;;;;;;;;;;;;;9.49;nan;100203.66;5026577;28;21304;-84
2023/12/24 01:15:47;;;;;;;;;;;;;;;9.50;nan;100205.28;5026248;28;19932;-84
2023/12/24 01:18:15;;;;;;;;;;;;;;;9.49;nan;100198.31;5026219;28;19960;-84
2023/12/24 01:20:41;;;;;;;;;;;;;;;9.49;nan;100204.47;5026691;28;19940;-84
2023/12/24 01:23:06;;;;;;;;;;;;;;;9.52;nan;100203.16;5026843;28;19929;-84
2023/12/24 01:25:31;;;;;;;;;;;;;;;9.54;nan;100211.75;5025530;28;19928;-84
2023/12/24 01:27:56;;;;;;;;;;;;;;;9.52;nan;100219.22;5011217;28;19944;-84
2023/12/24 01:30:22;;;;;;;;;;;;;;;9.52;nan;100209.31;5026750;28;20220;-85
2023/12/24 01:32:47;;;;;;;;;;;;;;;9.55;nan;100205.34;5027035;28;20039;-84
2023/12/24 01:35:12;;;;;;;;;;;;;;;9.48;nan;100212.75;5027695;28;20309;-84
2023/12/24 01:37:37;;;;;;;;;;;;;;;9.37;nan;100206.50;5027674;28;19924;-84
2023/12/24 01:40:03;;;;;;;;;;;;;;;9.27;nan;100195.69;5027609;28;19921;-84
2023/12/24 01:42:28;;;;;;;;;;;;;;;9.26;nan;100210.13;5027787;28;21147;-84
2023/12/24 01:44:53;;;;;;;;;;;;;;;9.23;nan;100205.28;5028353;28;20766;-84
2023/12/24 01:47:19;;;;;;;;;;;;;;;9.20;nan;100195.09;5027260;28;19931;-83
2023/12/24 01:49:45;;;;;;;;;;;;;;;9.01;nan;100200.81;5027667;28;20566;-84
2023/12/24 01:52:11;;;;;;;;;;;;;;;8.85;nan;100192.88;5027821;28;19932;-84
2023/12/24 01:54:36;;;;;;;;;;;;;;;8.71;nan;100198.56;5027617;28;19920;-85
2023/12/24 01:57:01;;;;;;;;;;;;;;;8.74;nan;100194.59;5027692;28;19925;-84
2023/12/24 01:59:28;;;;;;;;;;;;;;;8.68;nan;100188.41;5025857;28;20817;-84
2023/12/24 02:01:53;;;;;;;;;;;;;;;8.59;nan;100189.88;5026962;28;19976;-84
2023/12/24 02:04:19;;;;;;;;;;;;;;;8.54;nan;100197.81;5028831;28;20008;-84
2023/12/24 02:06:44;;;;;;;;;;;;;;;8.52;nan;100197.28;5028283;28;19921;-84
2023/12/24 02:09:09;;;;;;;;;;;;;;;8.54;nan;100200.50;5031440;28;19931;-84
2023/12/24 02:11:34;;;;;;;;;;;;;;;8.52;nan;100197.28;5032313;28;20351;-86
2023/12/24 02:14:00;;;;;;;;;;;;;;;8.50;nan;100201.25;5033221;28;19936;-84
2023/12/24 02:16:28;;;;;;;;;;;;;;;8.46;nan;100212.44;5031992;28;19962;-84
2023/12/24 02:18:53;;;;;;;;;;;;;;;8.43;nan;100212.91;5030338;28;19925;-85
2023/12/24 02:21:19;;;;;;;;;;;;;;;8.36;nan;100217.63;5032731;28;20604;-84
2023/12/24 02:23:44;;;;;;;;;;;;;;;8.34;nan;100221.59;5031956;28;19935;-84
2023/12/24 02:26:15;;;;;;;;;;;;;;;8.29;nan;100210.81;5032030;28;19925;-84
2023/12/24 02:28:42;;;;;;;;;;;;;;;8.27;nan;100215.59;5033600;28;19925;-84
2023/12/24 02:31:09;;;;;;;;;;;;;;;8.27;nan;100212.94;5015260;28;19975;-84
2023/12/24 02:33:36;;;;;;;;;;;;;;;8.27;nan;100219.06;5032641;28;19929;-85
2023/12/24 02:36:02;;;;;;;;;;;;;;;8.24;nan;100224.88;5033515;28;20407;-85
2023/12/24 02:38:27;;;;;;;;;;;;;;;8.23;nan;100231.28;5031771;28;19925;-84
2023/12/24 02:40:53;;;;;;;;;;;;;;;8.19;nan;100233.63;5031825;28;20546;-84
2023/12/24 02:43:18;;;;;;;;;;;;;;;8.15;nan;100221.81;5031799;28;19928;-85
2023/12/24 02:45:44;;;;;;;;;;;;;;;8.12;nan;100224.19;5031175;28;19925;-84
2023/12/24 02:48:10;;;;;;;;;;;;;;;8.10;nan;100227.09;5032546;28;20104;-84
2023/12/24 02:50:35;;;;;;;;;;;;;;;8.06;nan;100235.81;5032329;28;19921;-84
2023/12/24 02:53:00;;;;;;;;;;;;;;;7.98;nan;100230.91;5031411;28;20038;-84
2023/12/24 02:55:25;;;;;;;;;;;;;;;7.89;nan;100228.63;5031685;28;20016;-84
2023/12/24 02:57:51;;;;;;;;;;;;;;;7.88;nan;100227.00;5030533;28;19925;-84
2023/12/24 03:00:16;;;;;;;;;;;;;;;7.88;nan;100231.53;5031081;28;19925;-84
2023/12/24 03:02:41;;;;;;;;;;;;;;;7.83;nan;100224.25;5031191;28;19930;-83
2023/12/24 03:05:07;;;;;;;;;;;;;;;7.82;nan;100221.84;5032422;28;19931;-84
2023/12/24 03:07:32;;;;;;;;;;;;;;;7.80;nan;100226.63;5031908;28;19974;-84
2023/12/24 03:09:57;;;;;;;;;;;;;;;7.81;nan;100221.03;5031954;28;20554;-83
2023/12/24 03:12:23;;;;;;;;;;;;;;;7.79;nan;100220.47;5032682;28;19925;-83
2023/12/24 03:14:48;;;;;;;;;;;;;;;7.81;nan;100221.03;5032059;28;19944;-84
2023/12/24 03:17:13;;;;;;;;;;;;;;;7.83;nan;100215.47;5030855;28;19940;-83
2023/12/24 03:19:38;;;;;;;;;;;;;;;7.78;nan;100213.53;5028952;28;19932;-84
2023/12/24 03:22:04;;;;;;;;;;;;;;;7.78;nan;100218.84;5031277;28;20606;-84
2023/12/24 03:24:29;;;;;;;;;;;;;;;7.74;nan;100224.94;5031512;28;20016;-83
2023/12/24 03:26:54;;;;;;;;;;;;;;;7.71;nan;100222.72;5031879;28;19917;-83
2023/12/24 03:29:20;;;;;;;;;;;;;;;7.66;nan;100215.44;5030550;28;19956;-84
2023/12/24 03:31:45;;;;;;;;;;;;;;;7.66;nan;100209.31;5031707;28;20032;-83
2023/12/24 03:34:10;;;;;;;;;;;;;;;7.64;nan;100206.88;5030922;28;19924;-83
2023/12/24 03:36:35;;;;;;;;;;;;;;;7.63;nan;100201.81;5030491;28;19956;-85
2023/12/24 03:39:01;;;;;;;;;;;;;;;7.56;nan;100202.78;5029355;28;19931;-84
2023/12/24 03:41:26;;;;;;;;;;;;;;;7.46;nan;100197.25;5030665;28;20452;-84
2023/12/24 03:43:51;;;;;;;;;;;;;;;7.40;nan;100192.09;5031501;28;19925;-84
2023/12/24 03:46:20;;;;;;;;;;;;;;;7.38;nan;100184.34;5031617;28;19925;-84
2023/12/24 03:48:45;;;;;;;;;;;;;;;7.35;nan;100187.47;5029751;28;19924;-84
2023/12/24 03:51:11;;;;;;;;;;;;;;;7.34;nan;100177.84;5029288;28;19931;-84
2023/12/24 03:53:37;;;;;;;;;;;;;;;7.24;nan;100183.81;5030339;28;19925;-84
2023/12/24 03:56:03;;;;;;;;;;;;;;;7.22;nan;100179.78;5030784;28;19964;-84
2023/12/24 03:58:28;;;;;;;;;;;;;;;7.18;nan;100184.78;5029881;28;20043;-85
2023/12/24 04:00:53;;;;;;;;;;;;;;;7.14;nan;100180.16;5030100;28;19965;-84
2023/12/24 04:03:19;;;;;;;;;;;;;;;7.10;nan;100177.19;5030339;28;19929;-84
2023/12/24 04:05:44;;;;;;;;;;;;;;;7.10;nan;100171.84;5030133;28;20304;-84
2023/12/24 04:08:09;;;;;;;;;;;;;;;7.13;nan;100176.69;5029843;28;19931;-85
2023/12/24 04:10:39;;;;;;;;;;;;;;;7.10;nan;100165.72;5030252;28;19933;-84
2023/12/24 04:13:05;;;;;;;;;;;;;;;7.10;nan;100153.19;5030022;28;20016;-84
2023/12/24 04:15:30;;;;;;;;;;;;;;;7.10;nan;100157.72;5029686;28;19931;-84
2023/12/24 04:17:55;;;;;;;;;;;;;;;7.11;nan;100162.81;5029466;28;20016;-84
2023/12/24 04:20:20;;;;;;;;;;;;;;;7.08;nan;100173.13;5028823;28;19925;-85
2023/12/24 04:22:46;;;;;;;;;;;;;;;7.06;nan;100170.72;5029979;28;20047;-85
2023/12/24 04:25:11;;;;;;;;;;;;;;;7.03;nan;100165.06;5030284;28;20284;-84
2023/12/24 04:27:36;;;;;;;;;;;;;;;7.06;nan;100167.25;5030315;28;19931;-85
2023/12/24 04:30:01;;;;;;;;;;;;;;;7.07;nan;100169.66;5029266;28;19951;-85
2023/12/24 04:32:27;;;;;;;;;;;;;;;7.06;nan;100165.38;5028679;28;19953;-84
2023/12/24 04:34:52;;;;;;;;;;;;;;;7.10;nan;100160.38;5030104;28;19925;-85
2023/12/24 04:37:17;;;;;;;;;;;;;;;7.09;nan;100156.91;5028535;28;20149;-85
2023/12/24 04:39:42;;;;;;;;;;;;;;;7.09;nan;100153.44;5029043;28;20566;-86
2023/12/24 04:42:08;;;;;;;;;;;;;;;7.10;nan;100149.72;5030888;28;21243;-85
2023/12/24 04:44:36;;;;;;;;;;;;;;;7.12;nan;100155.63;5030779;28;19925;-85
2023/12/24 04:47:02;;;;;;;;;;;;;;;7.17;nan;100155.69;5031670;28;19924;-85
2023/12/24 04:49:27;;;;;;;;;;;;;;;7.24;nan;100151.03;5031293;28;19924;-86
2023/12/24 04:51:53;;;;;;;;;;;;;;;7.26;nan;100149.75;5032667;28;20036;-86
2023/12/24 04:54:19;;;;;;;;;;;;;;;7.28;nan;100152.19;5030862;28;19925;-86
2023/12/24 04:56:44;;;;;;;;;;;;;;;7.28;nan;100147.66;5031598;28;19921;-87
2023/12/24 04:59:09;;;;;;;;;;;;;;;7.30;nan;100139.41;5032565;28;20417;-86
2023/12/24 05:01:34;;;;;;;;;;;;;;;7.31;nan;100149.03;5031916;28;19925;-86
2023/12/24 05:04:00;;;;;;;;;;;;;;;7.36;nan;100137.63;5032101;28;20099;-86
2023/12/24 05:06:27;;;;;;;;;;;;;;;7.41;nan;100151.06;5030876;28;20352;-86
2023/12/24 05:08:52;;;;;;;;;;;;;;;7.44;nan;100153.25;5032824;28;19925;-86
2023/12/24 05:11:18;;;;;;;;;;;;;;;7.45;nan;100147.66;5033234;28;19979;-86
2023/12/24 05:13:43;;;;;;;;;;;;;;;7.47;nan;100150.09;5032388;28;20385;-86
2023/12/24 05:16:08;;;;;;;;;;;;;;;7.43;nan;100147.09;5033783;28;19948;-86
2023/12/24 05:18:34;;;;;;;;;;;;;;;7.45;nan;100147.66;5031689;28;20385;-86
2023/12/24 05:20:59;;;;;;;;;;;;;;;7.42;nan;100142.81;5031054;28;19985;-86
2023/12/24 05:23:25;;;;;;;;;;;;;;;7.40;nan;100133.47;5031565;28;19967;-86
2023/12/24 05:25:50;;;;;;;;;;;;;;;7.42;nan;100142.81;5032501;28;20553;-85
2023/12/24 05:28:17;;;;;;;;;;;;;;;7.48;nan;100149.84;5031298;28;19936;-86
2023/12/24 05:30:42;;;;;;;;;;;;;;;7.54;nan;100146.22;5032259;28;19925;-86
2023/12/24 05:33:08;;;;;;;;;;;;;;;7.60;nan;100143.63;5032246;28;19971;-86
2023/12/24 05:35:33;;;;;;;;;;;;;;;7.61;nan;100135.38;5032412;28;19945;-85
2023/12/24 05:37:58;;;;;;;;;;;;;;;7.62;nan;100130.88;5031524;28;19925;-86
2023/12/24 05:40:23;;;;;;;;;;;;;;;7.66;nan;100132.00;5032139;28;20003;-86
2023/12/24 05:42:49;;;;;;;;;;;;;;;7.66;nan;100121.31;5016967;28;20874;-86
2023/12/24 05:45:14;;;;;;;;;;;;;;;7.68;nan;100124.56;5038656;28;19924;-86
2023/12/24 05:47:39;;;;;;;;;;;;;;;7.70;nan;100117.91;5038330;28;19956;-87
2023/12/24 05:50:06;;;;;;;;;;;;;;;7.68;nan;100114.69;5038832;28;19927;-86
2023/12/24 05:52:31;;;;;;;;;;;;;;;7.70;nan;100117.13;5040785;28;19923;-87
2023/12/24 05:54:56;;;;;;;;;;;;;;;7.70;nan;100109.13;5022772;28;20029;-87
2023/12/24 05:57:22;;;;;;;;;;;;;;;7.69;nan;100097.63;5038446;28;19951;-86
2023/12/24 05:59:47;;;;;;;;;;;;;;;7.69;nan;100094.16;5039016;28;19924;-87
2023/12/24 06:02:12;;;;;;;;;;;;;;;7.69;nan;100102.16;5020839;28;19929;-87
2023/12/24 06:04:37;;;;;;;;;;;;;;;7.73;nan;100096.13;5041642;28;19921;-88
2023/12/24 06:07:04;;;;;;;;;;;;;;;7.73;nan;100095.31;5041133;28;19972;-87
2023/12/24 06:09:30;;;;;;;;;;;;;;;7.75;nan;100098.53;5039869;28;19964;-88
2023/12/24 06:11:55;;;;;;;;;;;;;;;7.67;nan;100096.28;5045168;28;20380;-88
2023/12/24 06:14:20;;;;;;;;;;;;;;;7.64;nan;100092.25;5042656;28;19920;-89
2023/12/24 06:16:45;;;;;;;;;;;;;;;7.65;nan;100090.38;5044954;28;19925;-89
2023/12/24 06:19:11;;;;;;;;;;;;;;;7.67;nan;100085.59;5022057;28;19920;-88
2023/12/24 06:21:36;;;;;;;;;;;;;;;7.66;nan;100084.00;5044005;28;19979;-89
2023/12/24 06:24:01;;;;;;;;;;;;;;;7.67;nan;100083.75;5044441;28;20822;-88
2023/12/24 06:26:26;;;;;;;;;;;;;;;7.66;nan;100082.13;5043336;28;19947;-88
2023/12/24 06:28:52;;;;;;;;;;;;;;;7.65;nan;100077.84;5040440;28;19916;-88
2023/12/24 06:31:21;;;;;;;;;;;;;;;7.66;nan;100081.31;5024876;28;20621;-88
2023/12/24 06:33:47;;;;;;;;;;;;;;;7.67;nan;100086.41;5042685;28;19918;-87
2023/12/24 06:36:12;;;;;;;;;;;;;;;7.70;nan;100080.59;5038221;28;19924;-87
2023/12/24 06:38:37;;;;;;;;;;;;;;;7.71;nan;100086.72;5040438;28;20399;-88
2023/12/24 06:41:03;;;;;;;;;;;;;;;7.72;nan;100083.00;5040578;28;19921;-87
2023/12/24 06:43:28;;;;;;;;;;;;;;;7.70;nan;100083.25;5039313;28;19992;-87
2023/12/24 06:45:53;;;;;;;;;;;;;;;7.71;nan;100065.41;5022654;28;20297;-85
2023/12/24 06:48:18;;;;;;;;;;;;;;;7.71;nan;100065.41;5035905;28;19974;-86
2023/12/24 06:50:44;;;;;;;;;;;;;;;7.65;nan;100061.06;5038595;28;20388;-88
2023/12/24 06:53:09;;;;;;;;;;;;;;;7.65;nan;100066.38;5038835;28;19924;-86
2023/12/24 06:55:34;;;;;;;;;;;;;;;7.64;nan;100060.25;5040435;28;20377;-86
2023/12/24 06:58:02;;;;;;;;;;;;;;;7.66;nan;100046.66;5038375;28;19970;-87
2023/12/24 07:00:27;;;;;;;;;;;;;;;7.69;nan;100038.19;5038828;28;20393;-87
2023/12/24 07:02:53;;;;;;;;;;;;;;;7.69;nan;100032.84;5037108;28;19966;-87
2023/12/24 07:05:18;;;;;;;;;;;;;;;7.73;nan;100039.31;5040243;28;19924;-87
2023/12/24 07:07:43;;;;;;;;;;;;;;;7.70;nan;100037.13;5023402;28;19925;-87
2023/12/24 07:10:08;;;;;;;;;;;;;;;7.71;nan;100033.41;5040210;28;20503;-88
2023/12/24 07:12:35;;;;;;;;;;;;;;;7.68;nan;100031.22;5038741;28;20023;-88
2023/12/24 07:15:00;;;;;;;;;;;;;;;7.66;nan;100025.34;5038084;28;19925;-87
2023/12/24 07:17:26;;;;;;;;;;;;;;;7.63;nan;100020.50;5033945;28;21057;-87
2023/12/24 07:19:51;;;;;;;;;;;;;;;7.62;nan;100009.03;5036803;28;20046;-87
2023/12/24 07:22:17;;;;;;;;;;;;;;;7.68;nan;100004.56;5042869;28;19928;-88
2023/12/24 07:24:43;;;;;;;;;;;;;;;7.64;nan;100006.94;5039853;28;19917;-87
2023/12/24 07:27:08;;;;;;;;;;;;;;;7.65;nan;100013.88;5040941;28;19971;-88
2023/12/24 07:29:33;;;;;;;;;;;;;;;7.64;nan;99996.25;5039324;28;20055;-88
2023/12/24 07:31:58;;;;;;;;;;;;;;;7.64;nan;99998.94;5037739;28;21027;-88
2023/12/24 07:34:23;;;;;;;;;;;;;;;7.58;nan;100002.59;5042133;28;19917;-87
2023/12/24 07:36:49;;;;;;;;;;;;;;;7.51;nan;99993.94;5041907;28;20066;-88
2023/12/24 07:39:14;;;;;;;;;;;;;;;7.51;nan;99989.41;5038175;28;19917;-87
2023/12/24 07:41:39;;;;;;;;;;;;;;;7.50;nan;99982.47;5039271;28;20013;-87
2023/12/24 07:44:05;;;;;;;;;;;;;;;7.49;nan;99978.19;5037544;28;20016;-86
2023/12/24 07:46:30;;;;;;;;;;;;;;;7.46;nan;99977.88;5034222;28;19925;-86
2023/12/24 07:48:55;;;;;;;;;;;;;;;7.39;nan;99972.75;5023312;28;19971;-85
2023/12/24 07:51:20;;;;;;;;;;;;;;;7.38;nan;99963.16;5034239;28;20376;-86
2023/12/24 07:53:46;;;;;;;;;;;;;;;7.35;nan;99960.94;5035594;28;19979;-86
2023/12/24 07:56:11;;;;;;;;;;;;;;;7.37;nan;99958.06;5035100;28;21410;-86
2023/12/24 07:58:37;;;;;;;;;;;;;;;7.41;nan;99959.16;5034725;28;19978;-86
2023/12/24 08:01:02;;;;;;;;;;;;;;;7.39;nan;99958.63;5034731;28;19951;-86
2023/12/24 08:03:28;;;;;;;;;;;;;;;7.40;nan;99955.69;5034844;28;19940;-86
2023/12/24 08:05:53;;;;;;;;;;;;;;;7.34;nan;99955.88;5031601;28;19925;-86
2023/12/24 08:08:18;;;;;;;;;;;;;;;7.42;nan;99953.59;5030011;28;20347;-86
2023/12/24 08:10:43;;;;;;;;;;;;;;;7.36;nan;99951.91;5032354;28;19961;-86
2023/12/24 08:13:09;;;;;;;;;;;;;;;7.37;nan;99945.53;5033968;28;19932;-85
2023/12/24 08:15:34;;;;;;;;;;;;;;;7.41;nan;99944.00;5013386;28;19947;-85
2023/12/24 08:17:59;;;;;;;;;;;;;;;7.38;nan;99943.69;5010321;28;19924;-85
2023/12/24 08:20:24;;;;;;;;;;;;;;;7.36;nan;99946.59;5030553;28;20429;-84
2023/12/24 08:22:50;;;;;;;;;;;;;;;7.36;nan;99940.44;5030035;28;19935;-85
2023/12/24 08:25:15;;;;;;;;;;;;;;;7.41;nan;99937.84;5029324;28;20007;-84
2023/12/24 08:27:50;;;;;;;;;;;;;;;7.43;52.70;99933.88;5073646;27;19932;-83
2023/12/24 08:30:15;;;;;;;;;;;;;;;7.46;52.78;99924.59;5075654;28;19974;-84
2023/12/24 08:32:40;;;;;;;;;;;;;;;7.46;52.77;99929.91;5075274;28;20331;-84
2023/12/24 08:35:06;;;;;;;;;;;;;;;7.47;52.78;99932.31;5074088;28;20418;-84
2023/12/24 08:37:31;;;;;;;;;;;;;;;7.51;52.52;99928.09;5074792;28;19933;-83
2023/12/24 08:39:56;;;;;;;;;;;;;;;7.57;52.39;99921.00;5074253;28;20042;-83
2023/12/24 08:42:21;;;;;;;;;;;;;;;7.58;52.44;99918.09;5074729;28;19963;-84
2023/12/24 08:44:47;;;;;;;;;;;;;;;7.64;52.39;99918.94;5075012;28;21425;-83
2023/12/24 08:47:12;;;;;;;;;;;;;;;7.64;52.70;99921.59;5074102;28;19957;-84
2023/12/24 08:49:37;;;;;;;;;;;;;;;7.69;52.87;99910.19;5074116;28;19925;-84
2023/12/24 08:52:03;;;;;;;;;;;;;;;7.73;52.53;99909.47;5073750;28;19925;-83
2023/12/24 08:54:28;;;;;;;;;;;;;;;7.78;52.93;99900.72;5073913;28;19924;-85
2023/12/24 08:56:53;;;;;;;;;;;;;;;7.82;52.21;99896.47;5073923;28;19931;-83
2023/12/24 08:59:18;;;;;;;;;;;;;;;7.81;52.21;99897.53;5074041;28;19979;-83
2023/12/24 09:01:44;;;;;;;;;;;;;;;7.79;52.43;99894.31;5074314;28;20293;-83
2023/12/24 09:04:09;;;;;;;;;;;;;;;7.79;52.62;99892.47;5074708;28;20388;-83
2023/12/24 09:06:35;;;;;;;;;;;;;;;7.87;52.90;99885.84;5074224;28;20376;-83
2023/12/24 09:09:01;;;;;;;;;;;;;;;7.90;52.21;99877.38;5072597;28;19956;-83
2023/12/24 09:11:26;;;;;;;;;;;;;;;7.89;52.66;99881.88;5073125;28;20141;-83
2023/12/24 09:13:51;;;;;;;;;;;;;;;7.96;52.71;99889.69;5072587;28;20369;-83
2023/12/24 09:16:17;;;;;;;;;;;;;;;7.99;52.73;99875.06;5104834;27;19924;-82
2023/12/24 09:18:42;;;;;;;;;;;;;;;7.99;52.71;99881.19;5072766;28;20380;-83
2023/12/24 09:21:07;;;;;;;;;;;;;;;8.05;52.57;99884.69;5074179;28;19967;-82
2023/12/24 09:23:33;;;;;;;;;;;;;;;8.06;52.62;99867.63;5105679;27;19924;-82
2023/12/24 09:25:58;;;;;;;;;;;;;;;8.06;53.20;99865.78;5074366;28;20525;-82
2023/12/24 09:28:23;;;;;;;;;;;;;;;8.11;53.20;99871.19;5073200;28;19931;-82
2023/12/24 09:30:49;;;;;;;;;;;;;;;8.20;52.69;99871.50;5072804;28;20019;-83
2023/12/24 09:33:14;;;;;;;;;;;;;;;8.23;53.11;99870.19;5073164;28;19928;-83
2023/12/24 09:35:41;;;;;;;;;;;;;;;8.26;52.91;99859.00;5073750;28;19993;-83
2023/12/24 09:38:06;;;;;;;;;;;;;;;8.32;53.17;99853.47;5065006;28;19978;-82
2023/12/24 09:40:32;;;;;;;;;;;;;;;8.37;52.96;99856.22;5050925;28;19964;-82
2023/12/24 09:42:57;;;;;;;;;;;;;;;8.41;52.97;99851.97;5058385;28;20379;-82
2023/12/24 09:45:22;;;;;;;;;;;;;;;8.47;53.06;99856.28;5058604;28;19989;-82
2023/12/24 09:47:47;;;;;;;;;;;;;;;8.54;53.20;99848.06;5091712;27;19966;-82
2023/12/24 09:50:13;;;;;;;;;;;;;;;8.59;53.11;99841.94;5058653;28;19925;-82
2023/12/24 09:52:39;;;;;;;;;;;;;;;8.63;53.28;99837.72;5058247;28;20414;-82
2023/12/24 09:55:05;;;;;;;;;;;;;;;8.70;53.06;99836.41;5059292;28;19925;-82
2023/12/24 09:57:30;;;;;;;;;;;;;;;8.74;53.40;99829.50;5058469;28;21275;-82
2023/12/24 09:59:55;;;;;;;;;;;;;;;8.79;53.26;99837.53;5067979;28;19931;-82
2023/12/24 10:02:20;;;;;;;;;;;;;;;8.79;53.46;99837.53;5058569;28;20321;-81
2023/12/24 10:04:46;;;;;;;;;;;;;;;8.85;53.52;99826.91;5058324;28;19932;-82
2023/12/24 10:07:12;;;;;;;;;;;;;;;8.89;53.32;99831.47;5060116;28;20509;-82
2023/12/24 10:09:47;;;;;;;;;;;;;;;8.95;53.17;99826.94;5058779;28;20024;-82
2023/12/24 10:12:13;;;;;;;;;;;;;;;8.99;53.48;99822.72;5061121;28;19978;-81
2023/12/24 10:14:39;;;;;;;;;;;;;;;9.07;53.14;99819.53;5055879;28;20454;-82
2023/12/24 10:17:05;;;;;;;;;;;;;;;9.13;53.40;99815.81;5057230;28;19924;-81
2023/12/24 10:19:31;;;;;;;;;;;;;;;9.19;53.62;99825.47;5056820;28;19940;-81
2023/12/24 10:22:02;;;;;;;;;;;;;;;9.24;53.33;99813.97;5057198;28;20351;-81
2023/12/24 10:24:40;;;;;;;;;;;;;;;9.30;53.50;99811.06;5056698;28;20396;-81
2023/12/24 10:27:10;;;;;;;;;;;;;;;9.38;53.28;99794.53;5055976;28;19928;-82
2023/12/24 10:29:36;;;;;;;;;;;;;;;9.46;53.39;99795.06;5057240;28;19920;-81
2023/12/24 10:32:02;;;;;;;;;;;;;;;9.52;53.53;99791.34;5066180;28;21273;-81
2023/12/24 10:34:28;;;;;;;;;;;;;;;9.59;53.53;99783.88;5057917;28;19925;-82
2023/12/24 10:36:53;;;;;;;;;;;;;;;9.64;53.60;99773.19;5058011;28;19921;-81
2023/12/24 10:39:24;;;;;;;;;;;;;;;9.72;53.79;99775.34;5055844;28;20019;-81
2023/12/24 10:41:53;;;;;;;;;;;;;;;9.78;53.84;99773.47;5056997;28;19930;-81
2023/12/24 10:44:18;;;;;;;;;;;;;;;9.84;53.60;99775.88;5056138;28;19924;-81
2023/12/24 10:46:43;;;;;;;;;;;;;;;9.89;54.14;99777.78;5058556;28;19934;-81
2023/12/24 10:49:09;;;;;;;;;;;;;;;9.97;53.80;99775.34;5055055;28;19927;-82
2023/12/24 10:51:34;;;;;;;;;;;;;;;10.05;53.80;99775.88;5055148;28;19925;-82
2023/12/24 10:54:00;;;;;;;;;;;;;;;10.11;54.11;99778.31;5055632;28;20404;-81
2023/12/24 10:56:31;;;;;;;;;;;;;;;10.21;54.20;99769.47;5054953;28;19932;-81
2023/12/24 10:59:11;;;;;;;;;;;;;;;10.33;54.24;99761.19;5055587;28;19978;-82
2023/12/24 11:01:37;;;;;;;;;;;;;;;10.42;54.54;99757.69;5056898;28;19930;-81
2023/12/24 11:04:03;;;;;;;;;;;;;;;10.51;54.46;99753.38;5057935;28;19925;-81
2023/12/24 11:06:37;;;;;;;;;;;;;;;10.62;54.84;99742.66;5055470;28;19929;-81
2023/12/24 11:09:14;;;;;;;;;;;;;;;10.72;55.44;99748.75;5056016;28;19952;-81
2023/12/24 11:12:00;;;;;;;;;;;;;;;10.83;55.25;99744.19;5058438;28;19924;-81
2023/12/24 11:14:37;;;;;;;;;;;;;;;11.00;54.83;99736.59;5055724;28;20038;-81
2023/12/24 11:17:03;;;;;;;;;;;;;;;11.12;54.89;99734.38;5087683;27;20624;-80
2023/12/24 11:19:28;;;;;;;;;;;;;;;11.22;55.14;99733.53;5055775;28;20029;-81
2023/12/24 11:22:07;;;;;;;;;;;;;;;11.32;55.31;99730.00;5055468;28;19925;-82
2023/12/24 11:24:33;;;;;;;;;;;;;;;11.44;55.14;99727.78;5056158;28;19924;-82
2023/12/24 11:26:58;;;;;;;;;;;;;;;11.54;55.23;99719.66;5054349;28;21048;-82
2023/12/24 11:29:43;;;;;;;;;;;;;;;11.64;55.92;99724.94;5057844;28;19971;-82
2023/12/24 11:32:26;;;;;;;;;;;;;;;11.77;55.48;99712.78;5056900;28;19924;-81
2023/12/24 11:34:58;;;;;;;;;;;;;;;11.91;55.65;99711.09;5057233;28;19959;-82
2023/12/24 11:37:31;;;;;;;;;;;;;;;12.08;55.52;99702.63;5056109;28;20459;-82
2023/12/24 11:40:00;;;;;;;;;;;;;;;12.23;55.60;99694.41;5054156;28;20404;-82
2023/12/24 11:42:39;;;;;;;;;;;;;;;12.37;55.65;99694.50;5055620;28;19924;-81
2023/12/24 11:45:04;;;;;;;;;;;;;;;12.51;55.78;99687.38;5055395;28;19924;-82
2023/12/24 11:47:30;;;;;;;;;;;;;;;12.62;56.01;99686.19;5056507;28;20400;-82
2023/12/24 11:49:56;;;;;;;;;;;;;;;12.78;55.87;99683.31;5056239;28;19978;-82
2023/12/24 11:52:22;;;;;;;;;;;;;;;12.88;55.61;99665.16;5053723;28;19947;-82
2023/12/24 11:54:47;;;;;;;;;;;;;;;13.02;55.92;99666.03;5053724;28;19920;-82
2023/12/24 11:57:23;;;;;;;;;;;;;;;13.12;55.97;99662.41;5061552;28;20381;-82
2023/12/24 11:59:48;;;;;;;;;;;;;;;13.22;55.92;99672.25;5057755;28;20585;-82
2023/12/24 12:02:14;;;;;;;;;;;;;;;13.28;55.97;99671.91;5059200;28;19925;-82
2023/12/24 12:04:39;;;;;;;;;;;;;;;13.39;55.89;99663.66;5059428;28;19925;-82
2023/12/24 12:07:04;;;;;;;;;;;;;;;13.45;56.08;99654.41;5060453;28;19924;-82
2023/12/24 12:09:30;;;;;;;;;;;;;;;13.53;56.14;99662.63;5059225;28;20002;-82
2023/12/24 12:11:55;;;;;;;;;;;;;;;13.60;56.19;99646.09;5059691;28;19920;-82
2023/12/24 12:14:20;;;;;;;;;;;;;;;13.67;55.91;99651.09;5056230;28;19924;-81
2023/12/24 12:16:45;;;;;;;;;;;;;;;13.74;56.14;99656.91;5057133;28;19925;-82
2023/12/24 12:19:11;;;;;;;;;;;;;;;13.80;56.12;99655.72;5084737;28;20023;-81
2023/12/24 12:21:37;;;;;;;;;;;;;;;13.88;55.97;99647.75;5061974;28;20408;-82
2023/12/24 12:24:02;;;;;;;;;;;;;;;13.98;55.96;99641.38;5056956;28;19924;-82
2023/12/24 12:26:28;;;;;;;;;;;;;;;14.05;56.01;99649.09;5059121;28;19971;-82
2023/12/24 12:28:53;;;;;;;;;;;;;;;14.09;55.97;99653.56;5060058;28;19920;-81
2023/12/24 12:31:19;;;;;;;;;;;;;;;14.14;56.06;99639.22;5055576;28;19928;-82
2023/12/24 12:33:44;;;;;;;;;;;;;;;14.17;56.02;99641.31;5059792;28;19978;-82
2023/12/24 12:36:09;;;;;;;;;;;;;;;14.23;56.10;99637.44;5060511;28;19920;-82
2023/12/24 12:38:34;;;;;;;;;;;;;;;14.28;56.15;99633.84;5061884;28;20565;-82
2023/12/24 12:41:00;;;;;;;;;;;;;;;14.31;56.03;99633.22;5064270;28;19955;-82
2023/12/24 12:43:25;;;;;;;;;;;;;;;14.36;56.18;99631.25;5055430;28;20715;-82
2023/12/24 12:45:50;;;;;;;;;;;;;;;14.42;56.01;99621.16;5058964;28;19983;-82
2023/12/24 12:48:15;;;;;;;;;;;;;;;14.40;56.19;99623.38;5058495;28;20373;-82
2023/12/24 12:50:41;;;;;;;;;;;;;;;14.45;56.21;99629.47;5059900;28;19921;-82
2023/12/24 12:53:06;;;;;;;;;;;;;;;14.57;56.05;99617.38;5061830;28;20800;-82
2023/12/24 12:55:32;;;;;;;;;;;;;;;14.58;56.33;99627.88;5061318;28;20048;-82